createdAt,value
2023-03-24T00:00:53.458Z,3.70
2023-03-24T00:03:26.012Z,3.97
2023-03-24T00:06:01.690Z,4.47
2023-03-24T00:08:36.631Z,4.13
2023-03-24T00:11:07.754Z,3.50
2023-03-24T00:13:38.513Z,3.93
2023-03-24T00:16:09.282Z,3.60
2023-03-24T00:18:39.578Z,3.57
2023-03-24T00:21:11.887Z,4.10
2023-03-24T00:23:43.059Z,3.87
2023-03-24T00:26:16.138Z,3.83
2023-03-24T00:28:45.859Z,3.90
2023-03-24T00:31:16.706Z,4.00
2023-03-24T00:33:50.758Z,3.57
2023-03-24T00:36:25.003Z,4.00
2023-03-24T00:38:54.136Z,3.60
2023-03-24T00:41:25.143Z,3.70
2023-03-24T00:43:56.658Z,3.57
2023-03-24T00:46:30.188Z,3.80
2023-03-24T00:49:03.014Z,3.53
2023-03-24T00:51:37.751Z,3.23
2023-03-24T00:54:09.422Z,4.13
2023-03-24T00:56:40.778Z,3.97
2023-03-24T00:59:10.894Z,3.40
2023-03-24T01:01:42.070Z,3.77
2023-03-24T01:04:11.294Z,3.50
2023-03-24T01:06:43.763Z,3.53
2023-03-24T01:09:14.905Z,3.60
2023-03-24T01:11:44.368Z,3.60
2023-03-24T01:14:14.753Z,3.30
2023-03-24T01:16:45.455Z,3.27
2023-03-24T01:19:14.494Z,3.50
2023-03-24T01:21:44.417Z,3.70
2023-03-24T01:24:15.433Z,3.90
2023-03-24T01:26:45.988Z,3.97
2023-03-24T01:29:15.572Z,3.33
2023-03-24T01:31:49.151Z,3.40
2023-03-24T01:34:18.855Z,3.50
2023-03-24T01:36:48.319Z,3.60
2023-03-24T01:39:17.863Z,3.63
2023-03-24T01:41:48.993Z,3.30
2023-03-24T01:44:33.186Z,3.50
2023-03-24T01:47:02.888Z,3.67
2023-03-24T01:49:36.879Z,3.63
2023-03-24T01:52:13.256Z,3.50
2023-03-24T01:54:46.568Z,3.37
2023-03-24T01:57:25.079Z,3.00
2023-03-24T01:59:56.713Z,3.23
2023-03-24T02:02:27.972Z,3.40
2023-03-24T02:05:01.058Z,3.50
2023-03-24T02:07:35.161Z,3.80
2023-03-24T02:10:07.530Z,3.30
2023-03-24T02:12:37.169Z,2.80
2023-03-24T02:15:09.341Z,3.70
2023-03-24T02:18:03.334Z,3.23
2023-03-24T02:21:14.554Z,3.30
2023-03-24T02:24:30.328Z,3.23
2023-03-24T02:27:11.350Z,3.60
2023-03-24T02:30:06.804Z,3.43
2023-03-24T02:33:16.556Z,3.83
2023-03-24T02:36:23.088Z,3.63
2023-03-24T02:39:21.976Z,3.90
2023-03-24T02:41:55.611Z,4.20
2023-03-24T02:44:33.273Z,4.00
2023-03-24T02:47:11.080Z,4.10
2023-03-24T02:49:48.193Z,3.80
2023-03-24T02:52:23.076Z,3.90
2023-03-24T02:54:59.025Z,3.57
2023-03-24T02:57:36.207Z,4.47
2023-03-24T03:00:12.872Z,3.90
2023-03-24T03:02:50.253Z,3.70
2023-03-24T03:05:30.849Z,3.77
2023-03-24T03:08:03.168Z,4.00
2023-03-24T03:10:37.451Z,3.87
2023-03-24T03:13:12.102Z,4.23
2023-03-24T03:15:45.871Z,4.20
2023-03-24T03:18:24.135Z,4.00
2023-03-24T03:20:55.829Z,4.27
2023-03-24T03:23:29.529Z,4.43
2023-03-24T03:26:05.915Z,4.37
2023-03-24T03:28:40.335Z,4.23
2023-03-24T03:31:15.861Z,4.20
2023-03-24T03:33:53.191Z,4.37
2023-03-24T03:36:28.979Z,3.97
2023-03-24T03:39:04.525Z,4.20
2023-03-24T03:41:34.342Z,3.90
2023-03-24T03:44:03.446Z,4.07
2023-03-24T03:46:31.566Z,4.50
2023-03-24T03:49:02.641Z,3.80
2023-03-24T03:51:32.602Z,4.30
2023-03-24T03:54:09.347Z,4.10
2023-03-24T03:56:40.991Z,4.43
2023-03-24T03:59:27.101Z,3.90
2023-03-24T04:01:57.067Z,4.50
2023-03-24T04:05:07.008Z,4.97
2023-03-24T04:07:47.441Z,4.80
2023-03-24T04:10:24.043Z,4.60
2023-03-24T04:13:15.351Z,4.37
2023-03-24T04:15:51.633Z,4.43
2023-03-24T04:18:46.124Z,3.73
2023-03-24T04:21:42.622Z,4.17
2023-03-24T04:24:29.731Z,4.00
2023-03-24T04:27:07.029Z,3.60
2023-03-24T04:29:46.636Z,4.00
2023-03-24T04:32:19.966Z,4.10
2023-03-24T04:34:54.292Z,4.07
2023-03-24T04:37:26.716Z,4.07
2023-03-24T04:40:00.452Z,4.03
2023-03-24T04:42:37.908Z,4.60
2023-03-24T04:45:13.448Z,4.70
2023-03-24T04:47:46.457Z,4.50
2023-03-24T04:50:15.472Z,4.20
2023-03-24T04:52:44.884Z,4.53
2023-03-24T04:55:33.418Z,4.87
2023-03-24T04:58:04.792Z,4.57
2023-03-24T05:00:38.045Z,4.80
2023-03-24T05:03:06.710Z,5.00
2023-03-24T05:05:37.674Z,5.53
2023-03-24T05:08:08.484Z,4.67
2023-03-24T05:10:37.945Z,3.87
2023-03-24T05:13:10.486Z,5.57
2023-03-24T05:15:42.558Z,5.60
2023-03-24T05:18:13.585Z,5.13
2023-03-24T05:20:42.862Z,6.00
2023-03-24T05:23:11.531Z,6.17
2023-03-24T05:25:40.083Z,6.60
2023-03-24T05:28:08.835Z,6.23
2023-03-24T05:30:36.854Z,6.00
2023-03-24T05:33:08.397Z,6.80
2023-03-24T05:35:36.420Z,6.00
2023-03-24T05:38:05.828Z,6.37
2023-03-24T05:40:35.445Z,6.40
2023-03-24T05:43:03.987Z,6.37
2023-03-24T05:45:32.064Z,5.53
2023-03-24T05:48:01.544Z,7.70
2023-03-24T05:50:31.981Z,6.37
2023-03-24T05:53:00.233Z,6.90
2023-03-24T05:55:31.634Z,6.33
2023-03-24T05:58:03.602Z,6.87
2023-03-24T06:00:36.210Z,6.27
2023-03-24T06:03:06.445Z,5.60
2023-03-24T06:05:39.804Z,5.40
2023-03-24T06:08:09.975Z,5.40
2023-03-24T06:10:43.408Z,5.80
2023-03-24T06:13:14.967Z,5.43
2023-03-24T06:15:46.891Z,5.53
2023-03-24T06:18:17.975Z,5.90
2023-03-24T06:20:50.873Z,5.33
2023-03-24T06:23:20.311Z,5.10
2023-03-24T06:25:50.862Z,4.80
2023-03-24T06:28:19.239Z,4.50
2023-03-24T06:30:49.254Z,4.03
2023-03-24T06:33:17.796Z,3.70
2023-03-24T06:35:49.271Z,3.20
2023-03-24T06:38:18.048Z,3.27
2023-03-24T06:40:46.897Z,2.97
2023-03-24T06:43:16.141Z,2.33
2023-03-24T06:45:46.448Z,3.07
2023-03-24T06:48:19.454Z,2.87
2023-03-24T07:14:48.669Z,3.40
2023-03-24T07:17:18.626Z,3.67
2023-03-24T07:19:46.730Z,3.20
2023-03-24T07:22:16.687Z,3.37
2023-03-24T07:24:44.856Z,3.27
2023-03-24T07:27:13.478Z,3.97
2023-03-24T07:29:50.014Z,3.07
2023-03-24T07:32:22.484Z,3.40
2023-03-24T07:34:50.737Z,3.13
2023-03-24T07:37:22.479Z,3.73
2023-03-24T07:42:40.018Z,3.30
2023-03-24T07:45:10.867Z,3.23
2023-03-24T07:47:45.770Z,2.80
2023-03-24T07:50:18.469Z,3.03
2023-03-24T07:52:49.917Z,2.83
2023-03-24T07:55:18.316Z,3.40
2023-03-24T07:57:52.929Z,3.40
2023-03-24T08:00:24.839Z,3.37
2023-03-24T08:02:56.635Z,3.97
2023-03-24T08:05:26.097Z,3.90
2023-03-24T08:07:55.054Z,3.70
2023-03-24T08:10:28.949Z,4.17
2023-03-24T08:12:58.256Z,4.17
2023-03-24T08:15:30.090Z,4.20
2023-03-24T08:18:02.107Z,4.70
2023-03-24T08:20:33.757Z,4.53
2023-03-24T08:23:05.036Z,5.07
2023-03-24T08:25:38.971Z,4.80
2023-03-24T08:28:08.386Z,5.07
2023-03-24T08:30:39.434Z,4.87
2023-03-24T08:33:13.773Z,3.57
2023-03-24T08:35:46.117Z,3.90
2023-03-24T08:38:18.753Z,3.67
2023-03-24T09:11:45.020Z,2.47
2023-03-24T09:14:13.659Z,1.20
2023-03-24T09:16:45.295Z,3.50
2023-03-24T09:19:14.687Z,2.37
2023-03-24T09:21:49.982Z,2.37
2023-03-24T09:24:20.452Z,1.40
2023-03-24T09:26:51.532Z,1.73
2023-03-24T09:29:19.774Z,1.60
2023-03-24T09:31:48.148Z,0.93
2023-03-24T09:34:19.875Z,1.60
2023-03-24T09:36:48.603Z,1.20
2023-03-24T09:39:23.170Z,1.30
2023-03-24T09:41:58.264Z,1.30
2023-03-24T09:44:33.857Z,1.30
2023-03-24T09:47:08.464Z,1.30
2023-03-24T09:49:43.416Z,1.47
2023-03-24T09:52:21.266Z,1.10
2023-03-24T09:54:56.089Z,1.20
2023-03-24T09:57:41.343Z,1.00
2023-03-24T10:00:25.894Z,1.33
2023-03-24T10:02:57.514Z,1.13
2023-03-24T10:05:37.402Z,1.20
2023-03-24T10:08:32.060Z,1.20
2023-03-24T10:11:15.586Z,1.20
2023-03-24T10:14:10.124Z,1.23
2023-03-24T10:16:47.265Z,1.40
2023-03-24T10:19:26.759Z,0.83
2023-03-24T10:22:05.813Z,1.10
2023-03-24T10:24:48.577Z,1.00
2023-03-24T10:27:50.345Z,1.30
2023-03-24T10:30:34.793Z,1.03
2023-03-24T10:33:04.258Z,1.30
2023-03-24T10:35:39.947Z,1.00
2023-03-24T10:38:30.081Z,1.30
2023-03-24T10:48:11.220Z,1.30
2023-03-24T10:50:45.296Z,1.60
2023-03-24T10:53:21.231Z,2.47
2023-03-24T10:55:51.322Z,1.50
2023-03-24T10:58:29.767Z,1.20
2023-03-24T11:01:02.092Z,1.80
2023-03-24T11:03:33.211Z,1.77
2023-03-24T11:06:07.194Z,2.77
2023-03-24T11:08:38.080Z,2.80
2023-03-24T11:11:30.773Z,2.57
2023-03-24T11:14:02.269Z,3.80
2023-03-24T11:16:32.376Z,3.40
2023-03-24T11:19:05.261Z,2.13
2023-03-24T11:21:37.639Z,1.87
2023-03-24T11:24:13.202Z,1.37
2023-03-24T11:26:42.136Z,1.40
2023-03-24T11:29:17.993Z,1.50
2023-03-24T11:31:53.221Z,1.40
2023-03-24T11:34:26.068Z,1.53
2023-03-24T11:36:59.163Z,1.50
2023-03-24T11:39:42.797Z,1.30
2023-03-24T11:42:20.121Z,1.50
2023-03-24T11:44:54.127Z,2.20
2023-03-24T11:47:29.082Z,1.77
2023-03-24T11:50:16.885Z,1.43
2023-03-24T11:52:52.054Z,2.60
2023-03-24T11:55:25.569Z,1.80
2023-03-24T11:57:58.398Z,1.80
2023-03-24T12:00:34.335Z,1.50
2023-03-24T12:03:39.566Z,1.87
2023-03-24T12:06:22.646Z,1.50
2023-03-24T12:09:06.579Z,4.17
2023-03-24T12:11:50.229Z,2.63
2023-03-24T12:14:33.263Z,2.03
2023-03-24T12:17:12.649Z,1.40
2023-03-24T12:20:05.840Z,1.37
2023-03-24T12:22:47.749Z,1.10
2023-03-24T12:25:40.320Z,1.40
2023-03-24T12:28:42.764Z,1.40
2023-03-24T12:31:29.917Z,1.00
2023-03-24T12:34:09.034Z,0.97
2023-03-24T12:36:52.147Z,1.10
2023-03-24T12:39:32.163Z,0.90
2023-03-24T12:42:12.798Z,1.20
2023-03-24T12:45:31.532Z,1.50
2023-03-24T12:48:41.761Z,1.30
2023-03-24T12:51:26.354Z,1.00
2023-03-24T12:54:11.537Z,1.37
2023-03-24T12:56:45.063Z,1.10
2023-03-24T12:59:20.710Z,1.10
2023-03-24T13:01:59.049Z,0.67
2023-03-24T13:04:32.217Z,1.23
2023-03-24T13:07:06.484Z,2.70
2023-03-24T13:09:48.621Z,5.27
2023-03-24T13:12:23.263Z,1.30
2023-03-24T13:15:03.807Z,1.53
2023-03-24T13:17:35.978Z,2.17
2023-03-24T13:20:11.491Z,1.50
2023-03-24T13:22:40.644Z,1.23
2023-03-24T13:25:44.104Z,1.30
2023-03-24T13:28:24.593Z,1.00
2023-03-24T13:30:56.621Z,1.17
2023-03-24T13:33:29.812Z,1.10
2023-03-24T13:36:21.783Z,1.30
2023-03-24T13:38:56.782Z,1.00
2023-03-24T13:41:28.404Z,1.23
2023-03-24T13:44:02.926Z,1.40
2023-03-24T13:46:35.430Z,1.10
2023-03-24T13:49:26.638Z,1.10
2023-03-24T13:51:55.469Z,1.30
2023-03-24T13:54:29.457Z,1.40
2023-03-24T13:57:05.108Z,1.20
2023-03-24T13:59:42.854Z,1.37
2023-03-24T14:02:25.819Z,1.10
2023-03-24T14:05:07.733Z,1.20
2023-03-24T14:07:50.309Z,1.00
2023-03-24T14:10:45.806Z,1.10
2023-03-24T14:13:35.333Z,1.00
2023-03-24T14:16:31.488Z,1.37
2023-03-24T14:19:19.885Z,1.20
2023-03-24T14:21:58.665Z,1.27
2023-03-24T14:24:30.781Z,0.90
2023-03-24T14:27:01.447Z,1.60
2023-03-24T14:29:44.100Z,1.10
2023-03-24T14:32:21.285Z,0.60
2023-03-24T14:35:00.373Z,2.00
2023-03-24T14:37:30.107Z,1.00
2023-03-24T14:40:01.985Z,1.00
2023-03-24T14:42:57.986Z,1.10
2023-03-24T14:46:16.532Z,1.00
2023-03-24T14:48:58.336Z,1.20
2023-03-24T14:51:56.032Z,1.63
2023-03-24T14:54:32.501Z,1.30
2023-03-24T14:57:03.098Z,1.30
2023-03-24T14:59:44.094Z,1.30
2023-03-24T15:02:34.818Z,1.27
2023-03-24T15:05:25.246Z,1.00
2023-03-24T15:08:05.125Z,1.33
2023-03-24T15:10:51.306Z,1.23
2023-03-24T15:13:30.440Z,2.00
2023-03-24T15:16:02.164Z,2.80
2023-03-24T15:18:31.275Z,2.30
2023-03-24T15:20:59.752Z,13.27
2023-03-24T15:23:35.649Z,1.63
2023-03-24T15:26:32.421Z,1.53
2023-03-24T15:29:12.057Z,1.40
2023-03-24T15:31:43.645Z,1.50
2023-03-24T15:34:28.408Z,1.20
2023-03-24T15:36:57.555Z,1.50
2023-03-24T15:39:44.684Z,2.13
2023-03-24T15:42:18.808Z,1.03
2023-03-24T15:44:48.658Z,2.13
2023-03-24T15:47:26.201Z,1.33
2023-03-24T15:49:57.637Z,1.10
2023-03-24T15:52:35.857Z,1.33
2023-03-24T15:55:38.645Z,0.80
2023-03-24T15:58:37.072Z,1.10
2023-03-24T16:01:19.164Z,1.10
2023-03-24T16:03:59.313Z,1.30
2023-03-24T16:06:46.690Z,0.97
2023-03-24T16:09:30.495Z,1.20
2023-03-24T16:12:19.718Z,1.47
2023-03-24T16:15:05.831Z,1.20
2023-03-24T16:17:43.414Z,1.10
2023-03-24T16:20:26.137Z,1.30
2023-03-24T16:22:59.843Z,2.47
2023-03-24T16:25:28.408Z,1.93
2023-03-24T16:28:00.314Z,1.83
2023-03-24T16:30:40.716Z,1.10
2023-03-24T16:33:16.609Z,1.40
2023-03-24T16:35:52.478Z,1.27
2023-03-24T16:38:30.525Z,0.83
2023-03-24T16:41:07.773Z,1.13
2023-03-24T16:43:56.318Z,1.00
2023-03-24T16:46:36.213Z,1.10
2023-03-24T16:49:26.122Z,1.30
2023-03-24T16:52:14.279Z,1.37
2023-03-24T16:55:00.490Z,1.30
2023-03-24T16:57:43.632Z,1.20
2023-03-24T17:00:40.756Z,1.00
2023-03-24T17:03:10.786Z,1.00
2023-03-24T17:05:43.228Z,0.90
2023-03-24T17:08:12.391Z,1.20
2023-03-24T17:10:44.567Z,1.00
2023-03-24T17:13:20.398Z,1.27
2023-03-24T17:15:50.562Z,1.10
2023-03-24T17:18:20.627Z,1.40
2023-03-24T17:20:49.778Z,1.07
2023-03-24T17:23:26.671Z,1.00
2023-03-24T17:25:56.624Z,0.93
2023-03-24T17:28:27.303Z,1.10
2023-03-24T17:30:59.028Z,1.33
2023-03-24T17:33:28.353Z,1.30
2023-03-24T17:36:01.180Z,1.40
2023-03-24T17:38:32.998Z,1.70
2023-03-24T17:41:03.436Z,1.27
2023-03-24T17:43:32.978Z,1.10
2023-03-24T17:46:03.224Z,1.17
2023-03-24T17:48:34.382Z,1.50
2023-03-24T17:51:02.738Z,1.47
2023-03-24T17:53:34.607Z,1.87
2023-03-24T17:56:16.158Z,1.43
2023-03-24T17:58:48.357Z,1.10
2023-03-24T18:01:19.450Z,0.73
2023-03-24T18:03:49.948Z,1.17
2023-03-24T18:06:20.273Z,1.13
2023-03-24T18:08:54.045Z,0.80
2023-03-24T18:11:25.468Z,1.00
2023-03-24T18:13:54.913Z,1.20
2023-03-24T18:16:25.363Z,1.93
2023-03-24T18:18:58.624Z,1.07
2023-03-24T18:21:28.003Z,1.10
2023-03-24T18:24:01.249Z,1.33
2023-03-24T18:26:33.997Z,1.40
2023-03-24T18:31:55.516Z,1.17
2023-03-24T18:34:29.768Z,1.40
2023-03-24T18:37:04.431Z,1.60
2023-03-24T18:39:35.401Z,1.30
2023-03-24T18:42:05.010Z,1.20
2023-03-24T18:44:34.046Z,1.27
2023-03-24T18:47:18.954Z,1.30
2023-03-24T18:50:08.822Z,1.23
2023-03-24T18:52:47.318Z,1.20
2023-03-24T18:55:20.441Z,1.67
2023-03-24T18:57:51.570Z,1.27
2023-03-24T19:00:28.330Z,1.47
2023-03-24T19:03:16.987Z,1.23
2023-03-24T19:05:53.185Z,1.20
2023-03-24T19:08:22.980Z,1.50
2023-03-24T19:11:01.341Z,1.30
2023-03-24T19:16:27.961Z,1.80
2023-03-24T19:19:04.808Z,1.80
2023-03-24T19:21:38.945Z,1.37
2023-03-24T19:24:15.330Z,1.33
2023-03-24T19:27:07.646Z,1.40
2023-03-24T19:32:55.414Z,1.73
2023-03-24T19:35:31.363Z,1.80
2023-03-24T19:38:02.272Z,1.43
2023-03-24T19:40:55.309Z,1.47
2023-03-24T19:43:28.152Z,1.60
2023-03-24T19:46:22.131Z,1.93
2023-03-24T19:49:07.245Z,1.37
2023-03-24T19:51:41.905Z,1.17
2023-03-24T19:54:10.465Z,1.40
2023-03-24T19:56:43.173Z,1.30
2023-03-24T19:59:29.286Z,1.30
2023-03-24T20:02:05.335Z,1.30
2023-03-24T20:04:40.262Z,1.47
2023-03-24T20:20:52.672Z,1.53
2023-03-24T20:23:24.579Z,1.30
2023-03-24T20:25:59.838Z,1.60
2023-03-24T20:28:40.523Z,1.40
2023-03-24T20:31:15.488Z,1.67
2023-03-24T20:34:05.158Z,1.93
2023-03-24T20:36:53.767Z,1.23
2023-03-24T20:39:39.419Z,1.20
2023-03-24T20:42:07.706Z,1.40
2023-03-24T20:44:36.842Z,1.17
2023-03-24T20:47:17.315Z,1.27
2023-03-24T20:49:55.757Z,1.20
2023-03-24T20:52:31.623Z,1.60
2023-03-24T20:55:16.666Z,1.00
2023-03-24T20:57:59.141Z,1.07
2023-03-24T21:00:31.126Z,1.30
2023-03-24T21:03:09.482Z,1.00
2023-03-24T21:05:54.616Z,1.03
2023-03-24T21:08:47.894Z,1.00
2023-03-24T21:11:29.432Z,1.00
2023-03-24T21:14:01.215Z,1.00
2023-03-24T21:16:38.134Z,0.90
2023-03-24T21:19:10.388Z,1.10
2023-03-24T21:21:40.487Z,0.70
2023-03-24T21:24:23.993Z,6.10
2023-03-24T21:26:57.151Z,0.70
2023-03-24T21:29:26.833Z,1.50
2023-03-24T21:31:55.801Z,0.80
2023-03-24T21:34:24.521Z,1.00
2023-03-24T21:37:03.194Z,0.77
2023-03-24T21:39:37.142Z,0.90
2023-03-24T21:42:06.949Z,0.90
2023-03-24T21:44:39.757Z,1.00
2023-03-24T21:47:16.650Z,1.03
2023-03-24T21:49:49.224Z,0.90
2023-03-24T21:52:18.508Z,0.87
2023-03-24T21:54:56.455Z,0.90
2023-03-24T21:57:25.652Z,1.10
2023-03-24T21:59:56.283Z,0.90
2023-03-24T22:02:30.834Z,1.13
2023-03-24T22:05:07.095Z,0.87
2023-03-24T22:07:37.900Z,0.87
2023-03-24T22:10:13.330Z,0.90
2023-03-24T22:12:43.206Z,0.80
2023-03-24T22:15:13.278Z,0.83
2023-03-24T22:17:43.258Z,0.80
2023-03-24T22:20:14.797Z,1.23
2023-03-24T22:22:46.000Z,0.63
2023-03-24T22:25:17.653Z,0.60
2023-03-24T22:27:45.772Z,0.90
2023-03-24T22:30:16.787Z,0.83
2023-03-24T22:32:48.841Z,0.80
2023-03-24T22:35:17.554Z,0.73
2023-03-24T22:37:48.687Z,0.53
2023-03-24T22:40:20.722Z,0.50
2023-03-24T22:42:49.094Z,0.53
2023-03-24T22:45:18.822Z,0.60
2023-03-24T22:47:47.658Z,0.70
2023-03-24T22:50:22.292Z,0.80
2023-03-24T22:52:51.681Z,1.00
2023-03-24T22:55:22.089Z,1.20
2023-03-24T22:57:53.031Z,0.77
2023-03-24T23:00:31.674Z,1.00
2023-03-24T23:03:02.704Z,1.07
2023-03-24T23:05:31.456Z,0.70
2023-03-24T23:08:01.578Z,0.60
2023-03-24T23:10:30.816Z,0.80
2023-03-24T23:13:02.510Z,0.80
2023-03-24T23:15:31.943Z,0.60
2023-03-24T23:18:00.906Z,0.60
2023-03-24T23:20:30.729Z,0.70
2023-03-24T23:23:06.735Z,0.80
2023-03-24T23:25:49.708Z,0.70
2023-03-24T23:28:18.899Z,0.60
2023-03-24T23:30:48.610Z,0.60
2023-03-24T23:33:22.149Z,0.60
2023-03-24T23:35:51.684Z,0.60
2023-03-24T23:38:20.648Z,0.70
2023-03-24T23:40:51.309Z,0.40
2023-03-24T23:43:29.059Z,0.63
2023-03-24T23:45:59.090Z,0.50
2023-03-24T23:48:34.973Z,0.60
2023-03-24T23:51:11.218Z,0.57
2023-03-24T23:53:40.408Z,0.60
2023-03-24T23:56:14.828Z,0.53
